Главная страница
METAR-TAF:

METAR-TAF

Аэропорты :

Афины, Греция

Элефтериос Венизелос

широта: 37-56N, долгота: 023-56E, высота над уровнем моря: 94 м

Текущие метеонаблюдения

Эта сводка был подготовлена 15 минут назад, в 14:20 UTC
Ветер 7 Узел от восточный
Температура 27°C
Влажность 28%
Давление 1014 hPa
Видимость 10 км и более
Нет облачности ниже 1500 м, и нет кучево-дождевой облачности

METAR: LGAV 251420Z 08007KT CAVOK 27/07 Q1014 NOSIG

Время: 17:35 (14:35 UTC)

Прогноз

Эта сводка был подготовлена 3 часа и 35 минут назад, в 11:00 UTC
Прогноз действительный с 25-го 12 UTC до 26-го 12 UTC
Ветер 8 Узел от восточно-юго-восточный
Видимость 10 км и более
небольшая облачность на высоте 2000 фута
изменения
С 25-го 16 UTC до 25-го 18 UTC
Ветер 3 Узел переменных направлений
изменения
С 26-го 06 UTC до 26-го 08 UTC
Ветер 10 Узел от северо-северо-восточный

TAF: LGAV 251100Z 2512/2612 12008KT 9999 FEW020 BECMG 2516/2518 VRB03KT BECMG 2606/2608 02010KT

Метеонаблюдения и прогнозы для более 4000 аэропортов (сводки METAR и TAF).

Имеющиеся станции представлены на карте желтыми и красными точками.

Чтобы увидеть название станции, наведите на нее мышь.

Затем щелкните, чтобы увидеть метеонаблюдения и метеопрогнозы.

Управление картой: чтобы увеличить масштаб, щелкните зеленые кнопки с черным крестиком; чтобы уменьшить масштаб, щелкните зеленую кнопку с тире; для просмотра соседних карт щелкайте зеленые стрелки.


METAR-TAF: